createdAt,value
2023-04-07T00:00:03.535Z,6.56
2023-04-07T00:02:31.270Z,6.76
2023-04-07T00:04:57.825Z,6.52
2023-04-07T00:07:24.337Z,6.76
2023-04-07T00:09:50.712Z,6.34
2023-04-07T00:12:17.098Z,6.72
2023-04-07T00:14:43.478Z,6.49
2023-04-07T00:17:09.826Z,6.46
2023-04-07T00:19:37.505Z,6.57
2023-04-07T00:22:03.873Z,6.37
2023-04-07T00:24:34.452Z,6.71
2023-04-07T00:27:01.476Z,6.19
2023-04-07T00:29:27.827Z,6.62
2023-04-07T00:31:54.239Z,6.72
2023-04-07T00:34:20.662Z,6.27
2023-04-07T00:36:48.332Z,6.23
2023-04-07T00:39:14.677Z,6.51
2023-04-07T00:41:41.061Z,6.63
2023-04-07T00:44:07.448Z,6.17
2023-04-07T00:46:33.924Z,6.06
2023-04-07T00:49:01.114Z,6.33
2023-04-07T00:51:27.561Z,6.20
2023-04-07T00:53:56.051Z,6.45
2023-04-07T00:56:22.763Z,6.41
2023-04-07T00:58:49.108Z,6.34
2023-04-07T01:01:18.963Z,6.38
2023-04-07T01:03:49.721Z,6.60
2023-04-07T01:06:19.929Z,6.70
2023-04-07T01:08:53.886Z,6.79
2023-04-07T01:11:25.193Z,6.83
2023-04-07T01:13:53.087Z,6.35
2023-04-07T01:16:24.575Z,6.22
2023-04-07T01:18:54.059Z,6.56
2023-04-07T01:21:22.675Z,6.18
2023-04-07T01:24:04.018Z,6.04
2023-04-07T01:26:33.382Z,6.18
2023-04-07T01:29:26.614Z,6.51
2023-04-07T01:31:55.593Z,6.26
2023-04-07T01:34:25.625Z,6.52
2023-04-07T01:36:53.658Z,6.51
2023-04-07T01:39:20.817Z,6.35
2023-04-07T01:41:49.019Z,6.34
2023-04-07T01:44:16.154Z,5.88
2023-04-07T01:46:43.902Z,6.25
2023-04-07T01:49:12.419Z,5.84
2023-04-07T01:51:40.377Z,5.99
2023-04-07T01:54:08.178Z,5.85
2023-04-07T01:56:34.521Z,5.86
2023-04-07T01:59:00.902Z,5.79
2023-04-07T02:01:27.453Z,5.64
2023-04-07T02:04:03.867Z,5.32
2023-04-07T02:06:34.615Z,5.44
2023-04-07T02:09:06.819Z,5.73
2023-04-07T02:11:35.806Z,5.82
2023-04-07T02:14:05.736Z,5.67
2023-04-07T02:16:32.969Z,5.54
2023-04-07T02:19:01.022Z,5.80
2023-04-07T02:21:28.722Z,5.54
2023-04-07T02:23:55.442Z,5.34
2023-04-07T02:26:21.904Z,5.81
2023-04-07T02:28:48.286Z,5.65
2023-04-07T02:31:14.739Z,5.30
2023-04-07T02:33:41.132Z,5.56
2023-04-07T02:36:09.080Z,5.70
2023-04-07T02:38:35.446Z,5.74
2023-04-07T02:41:01.797Z,5.91
2023-04-07T02:43:28.168Z,5.53
2023-04-07T02:45:54.538Z,5.52
2023-04-07T02:48:20.900Z,5.12
2023-04-07T02:50:47.289Z,5.65
2023-04-07T02:53:15.041Z,5.88
2023-04-07T02:55:41.639Z,5.95
2023-04-07T02:58:08.030Z,5.75
2023-04-07T03:00:34.572Z,5.72
2023-04-07T03:03:01.111Z,5.85
2023-04-07T03:05:27.633Z,5.58
2023-04-07T03:07:54.129Z,5.19
2023-04-07T03:10:21.801Z,5.36
2023-04-07T03:12:48.626Z,5.19
2023-04-07T03:15:16.565Z,4.90
2023-04-07T03:17:44.019Z,5.47
2023-04-07T03:20:10.880Z,5.43
2023-04-07T03:22:37.249Z,5.30
2023-04-07T03:25:04.125Z,5.48
2023-04-07T03:27:31.791Z,5.59
2023-04-07T03:29:58.153Z,5.37
2023-04-07T03:32:24.562Z,5.38
2023-04-07T03:34:50.952Z,5.43
2023-04-07T03:37:17.319Z,5.14
2023-04-07T03:39:43.668Z,5.52
2023-04-07T03:42:10.037Z,5.31
2023-04-07T03:44:37.745Z,5.02
2023-04-07T03:47:04.168Z,5.32
2023-04-07T03:49:30.560Z,5.45
2023-04-07T03:51:57.050Z,5.41
2023-04-07T03:54:23.641Z,5.12
2023-04-07T03:56:50.037Z,5.09
2023-04-07T03:59:16.463Z,4.71
2023-04-07T04:01:44.236Z,4.86
2023-04-07T04:04:10.846Z,4.58
2023-04-07T04:06:37.341Z,5.12
2023-04-07T04:09:03.895Z,4.89
2023-04-07T04:11:30.301Z,5.04
2023-04-07T04:13:56.853Z,5.08
2023-04-07T04:16:23.261Z,4.69
2023-04-07T04:18:51.070Z,4.50
2023-04-07T04:21:17.515Z,4.65
2023-04-07T04:23:43.974Z,4.53
2023-04-07T04:26:10.321Z,4.77
2023-04-07T04:28:37.967Z,4.65
2023-04-07T04:31:05.262Z,5.49
2023-04-07T04:33:31.624Z,4.46
2023-04-07T04:35:59.352Z,5.22
2023-04-07T04:38:25.705Z,5.00
2023-04-07T04:40:52.132Z,5.25
2023-04-07T04:43:18.604Z,4.81
2023-04-07T04:45:45.066Z,4.70
2023-04-07T04:48:11.471Z,4.97
2023-04-07T04:50:37.887Z,4.99
2023-04-07T04:53:05.684Z,5.05
2023-04-07T04:55:32.053Z,4.69
2023-04-07T04:57:58.473Z,4.72
2023-04-07T05:00:25.582Z,4.60
2023-04-07T05:02:52.128Z,4.41
2023-04-07T05:05:18.829Z,4.58
2023-04-07T05:07:45.198Z,4.33
2023-04-07T05:10:13.340Z,4.64
2023-04-07T05:12:39.745Z,4.33
2023-04-07T05:15:07.593Z,4.48
2023-04-07T05:17:34.026Z,4.69
2023-04-07T05:20:00.668Z,4.63
2023-04-07T05:22:27.089Z,4.49
2023-04-07T05:24:53.416Z,4.45
2023-04-07T05:27:21.118Z,5.04
2023-04-07T05:29:47.460Z,4.90
2023-04-07T05:32:13.818Z,4.93
2023-04-07T05:34:40.170Z,4.60
2023-04-07T05:37:06.529Z,4.91
2023-04-07T05:39:32.923Z,5.07
2023-04-07T05:41:59.309Z,4.79
2023-04-07T05:44:27.036Z,5.38
2023-04-07T05:46:53.392Z,4.91
2023-04-07T05:49:20.658Z,5.44
2023-04-07T05:51:48.781Z,5.42
2023-04-07T05:54:15.723Z,5.46
2023-04-07T05:56:42.148Z,5.41
2023-04-07T05:59:08.544Z,5.42
2023-04-07T06:01:36.258Z,5.10
2023-04-07T06:04:02.761Z,5.17
2023-04-07T06:06:29.245Z,5.04
2023-04-07T06:08:55.619Z,5.12
2023-04-07T06:11:23.289Z,5.04
2023-04-07T06:13:49.885Z,5.57
2023-04-07T06:16:17.444Z,5.35
2023-04-07T06:18:46.828Z,5.45
2023-04-07T06:21:13.206Z,4.99
2023-04-07T06:23:39.557Z,5.25
2023-04-07T06:26:06.038Z,5.28
2023-04-07T06:28:32.470Z,5.18
2023-04-07T06:30:59.545Z,5.02
2023-04-07T06:33:26.323Z,5.32
2023-04-07T06:35:54.117Z,5.14
2023-04-07T06:38:20.554Z,5.49
2023-04-07T06:40:47.033Z,5.33
2023-04-07T06:43:13.519Z,5.62
2023-04-07T06:45:39.984Z,5.55
2023-04-07T06:48:07.056Z,5.31
2023-04-07T06:50:33.548Z,5.80
2023-04-07T06:53:01.470Z,5.73
2023-04-07T06:55:28.111Z,5.98
2023-04-07T06:57:54.602Z,5.62
2023-04-07T07:00:21.553Z,5.97
2023-04-07T07:02:48.156Z,6.42
2023-04-07T07:05:14.973Z,6.16
2023-04-07T07:07:41.391Z,6.06
2023-04-07T07:10:10.775Z,6.32
2023-04-07T07:12:37.320Z,6.72
2023-04-07T07:15:05.007Z,6.41
2023-04-07T07:17:31.550Z,7.08
2023-04-07T07:19:58.026Z,6.81
2023-04-07T07:22:24.483Z,6.54
2023-04-07T07:24:50.925Z,7.23
2023-04-07T07:27:18.686Z,7.19
2023-04-07T07:29:45.124Z,7.70
2023-04-07T07:32:11.821Z,7.83
2023-04-07T07:34:38.358Z,8.25
2023-04-07T07:37:04.833Z,7.86
2023-04-07T07:39:31.261Z,7.83
2023-04-07T07:41:57.693Z,7.30
2023-04-07T07:44:25.440Z,7.24
2023-04-07T07:46:52.088Z,7.34
2023-04-07T07:49:18.574Z,7.83
2023-04-07T07:51:45.036Z,7.43
2023-04-07T07:54:11.576Z,8.25
2023-04-07T07:56:37.954Z,8.23
2023-04-07T07:59:04.610Z,8.62
2023-04-07T08:01:32.453Z,7.75
2023-04-07T08:03:59.095Z,7.89
2023-04-07T08:06:25.543Z,8.22
2023-04-07T08:08:51.931Z,7.83
2023-04-07T08:11:18.293Z,8.09
2023-04-07T08:13:44.651Z,8.27
2023-04-07T08:16:11.104Z,8.78
2023-04-07T08:18:38.844Z,8.78
2023-04-07T08:21:05.773Z,8.80
2023-04-07T08:23:32.281Z,8.56
2023-04-07T08:25:58.748Z,8.74
2023-04-07T08:28:25.988Z,8.75
2023-04-07T08:30:52.411Z,8.51
2023-04-07T08:33:18.874Z,8.31
2023-04-07T08:35:46.607Z,8.64
2023-04-07T08:38:13.176Z,8.88
2023-04-07T08:40:39.686Z,8.84
2023-04-07T08:43:09.778Z,8.94
2023-04-07T08:45:39.504Z,9.55
2023-04-07T08:48:14.000Z,9.38
2023-04-07T08:50:44.137Z,9.73
2023-04-07T08:53:13.089Z,10.39
2023-04-07T08:55:40.585Z,10.82
2023-04-07T08:58:09.410Z,11.82
2023-04-07T09:00:36.662Z,11.35
2023-04-07T09:03:04.108Z,9.87
2023-04-07T09:05:30.954Z,9.85
2023-04-07T09:07:57.313Z,10.12
2023-04-07T09:10:25.007Z,10.61
2023-04-07T09:12:51.386Z,10.57
2023-04-07T09:15:18.733Z,14.65
2023-04-07T09:17:45.348Z,14.81
2023-04-07T09:20:11.824Z,15.05
2023-04-07T09:22:39.681Z,13.97
2023-04-07T09:25:16.484Z,13.79
2023-04-07T09:27:59.282Z,14.22
2023-04-07T09:30:26.653Z,12.48
2023-04-07T09:32:53.257Z,12.71
2023-04-07T09:35:19.906Z,12.40
2023-04-07T09:38:01.574Z,12.60
2023-04-07T09:40:27.966Z,12.88
2023-04-07T09:42:55.672Z,12.38
2023-04-07T09:45:33.804Z,11.88
2023-04-07T09:48:05.685Z,12.23
2023-04-07T09:50:33.185Z,12.62
2023-04-07T09:52:59.550Z,12.60
2023-04-07T09:55:26.157Z,12.85
2023-04-07T09:57:53.736Z,13.87
2023-04-07T10:00:22.115Z,13.17
2023-04-07T10:02:48.763Z,13.46
2023-04-07T10:05:15.315Z,12.85
2023-04-07T10:07:42.908Z,12.56
2023-04-07T10:10:10.208Z,12.29
2023-04-07T10:12:37.762Z,11.75
2023-04-07T10:15:05.705Z,12.05
2023-04-07T10:17:33.900Z,12.10
2023-04-07T10:20:01.958Z,11.84
2023-04-07T10:22:30.354Z,11.99
2023-04-07T10:25:00.477Z,12.70
2023-04-07T10:27:30.912Z,13.30
2023-04-07T10:29:58.369Z,12.48
2023-04-07T10:32:25.116Z,12.28
2023-04-07T10:35:01.957Z,12.80
2023-04-07T10:37:28.371Z,12.59
2023-04-07T10:40:28.121Z,12.65
2023-04-07T10:42:54.888Z,12.40
2023-04-07T10:45:52.553Z,12.72
2023-04-07T10:48:19.585Z,12.69
2023-04-07T10:51:24.762Z,12.17
2023-04-07T10:54:18.859Z,12.01
2023-04-07T10:57:12.960Z,12.65
2023-04-07T10:59:41.497Z,12.34
2023-04-07T11:02:33.355Z,12.68
2023-04-07T11:05:00.205Z,11.98
2023-04-07T11:07:52.018Z,12.69
2023-04-07T11:10:18.415Z,12.44
2023-04-07T11:12:58.490Z,12.98
2023-04-07T11:15:25.237Z,12.93
2023-04-07T11:18:08.936Z,13.05
2023-04-07T11:20:45.542Z,13.27
2023-04-07T11:23:14.436Z,13.35
2023-04-07T11:25:43.257Z,13.70
2023-04-07T11:28:10.938Z,13.00
2023-04-07T11:30:37.429Z,12.97
2023-04-07T11:33:03.979Z,13.00
2023-04-07T11:35:30.501Z,13.30
2023-04-07T11:37:58.808Z,13.13
2023-04-07T11:40:34.507Z,13.06
2023-04-07T11:43:00.925Z,13.39
2023-04-07T11:45:27.537Z,13.97
2023-04-07T11:47:53.984Z,13.47
2023-04-07T11:50:38.840Z,13.03
2023-04-07T11:53:05.263Z,13.42
2023-04-07T11:55:33.172Z,13.60
2023-04-07T11:58:05.778Z,13.10
2023-04-07T12:00:32.127Z,12.86
2023-04-07T12:03:09.645Z,13.07
2023-04-07T12:05:42.417Z,13.60
2023-04-07T12:08:08.802Z,13.06
2023-04-07T12:10:36.556Z,12.95
2023-04-07T12:13:03.144Z,12.94
2023-04-07T12:15:29.498Z,13.02
2023-04-07T12:17:55.986Z,12.98
2023-04-07T12:20:22.459Z,13.29
2023-04-07T12:22:48.811Z,13.06
2023-04-07T12:25:15.171Z,13.03
2023-04-07T12:27:43.969Z,12.71
2023-04-07T12:30:11.645Z,12.75
2023-04-07T12:32:38.234Z,12.91
2023-04-07T12:35:05.334Z,12.78
2023-04-07T12:37:31.897Z,13.03
2023-04-07T12:39:58.367Z,13.11
2023-04-07T12:42:24.746Z,12.84
2023-04-07T12:44:52.430Z,12.72
2023-04-07T12:47:18.790Z,12.68
2023-04-07T12:49:45.146Z,12.80
2023-04-07T12:52:11.586Z,12.93
2023-04-07T12:54:38.042Z,13.07
2023-04-07T12:57:04.409Z,12.75
2023-04-07T12:59:30.820Z,13.12
2023-04-07T13:01:58.729Z,13.14
2023-04-07T13:04:25.397Z,13.05
2023-04-07T13:06:51.911Z,12.89
2023-04-07T13:09:18.285Z,12.99
2023-04-07T13:11:44.663Z,13.05
2023-04-07T13:14:11.016Z,12.88
2023-04-07T13:16:37.427Z,12.82
2023-04-07T13:19:05.117Z,12.85
2023-04-07T13:24:00.791Z,12.82
2023-04-07T13:26:27.142Z,13.16
2023-04-07T13:28:53.678Z,13.09
2023-04-07T13:31:20.187Z,12.93
2023-04-07T13:33:46.653Z,13.00
2023-04-07T13:36:14.613Z,13.47
2023-04-07T13:38:41.052Z,13.31
2023-04-07T13:41:07.449Z,13.25
2023-04-07T13:43:33.822Z,12.90
2023-04-07T13:46:00.233Z,13.08
2023-04-07T13:48:26.610Z,13.14
2023-04-07T13:50:53.160Z,12.99
2023-04-07T13:53:20.843Z,13.15
2023-04-07T13:55:47.196Z,13.03
2023-04-07T13:58:13.562Z,13.36
2023-04-07T14:00:39.981Z,13.33
2023-04-07T14:03:06.433Z,13.39
2023-04-07T14:05:32.879Z,13.52
2023-04-07T14:07:59.238Z,13.68
2023-04-07T14:10:26.927Z,13.40
2023-04-07T14:12:53.320Z,13.39
2023-04-07T14:15:19.989Z,13.34
2023-04-07T14:17:46.346Z,13.44
2023-04-07T14:20:12.828Z,13.37
2023-04-07T14:22:39.231Z,13.51
2023-04-07T14:25:06.622Z,13.38
2023-04-07T14:27:34.322Z,13.05
2023-04-07T14:30:00.716Z,13.22
2023-04-07T14:32:27.198Z,12.84
2023-04-07T14:34:56.469Z,13.14
2023-04-07T14:37:22.924Z,13.27
2023-04-07T14:40:01.442Z,13.25
2023-04-07T14:42:29.244Z,13.40
2023-04-07T14:44:57.199Z,14.02
2023-04-07T14:47:23.582Z,13.80
2023-04-07T14:49:51.955Z,13.31
2023-04-07T14:52:19.735Z,13.32
2023-04-07T14:54:46.069Z,14.49
2023-04-07T14:57:12.516Z,13.26
2023-04-07T14:59:38.861Z,13.35
2023-04-07T15:02:06.860Z,13.86
2023-04-07T15:04:33.609Z,13.85
2023-04-07T15:07:00.197Z,13.92
2023-04-07T15:09:26.563Z,13.59
2023-04-07T15:11:53.070Z,13.21
2023-04-07T15:14:19.418Z,13.44
2023-04-07T15:16:45.790Z,13.35
2023-04-07T15:19:13.575Z,13.48
2023-04-07T15:21:39.926Z,13.57
2023-04-07T15:24:06.320Z,13.54
2023-04-07T15:26:32.730Z,13.03
2023-04-07T15:28:59.118Z,13.02
2023-04-07T15:31:25.516Z,13.01
2023-04-07T15:33:51.905Z,13.13
2023-04-07T15:36:19.607Z,13.08
2023-04-07T15:38:46.069Z,13.29
2023-04-07T15:41:15.524Z,13.53
2023-04-07T15:43:41.916Z,13.30
2023-04-07T15:46:08.277Z,13.33
2023-04-07T15:48:34.735Z,13.38
2023-04-07T15:51:01.154Z,13.25
2023-04-07T15:53:29.404Z,12.91
2023-04-07T15:55:55.842Z,12.92
2023-04-07T15:58:22.211Z,13.03
2023-04-07T16:00:48.617Z,13.03
2023-04-07T16:03:15.262Z,13.32
2023-04-07T16:05:41.750Z,12.77
2023-04-07T16:08:08.105Z,12.75
2023-04-07T16:10:35.856Z,12.97
2023-04-07T16:13:02.417Z,12.86
2023-04-07T16:15:39.517Z,13.33
2023-04-07T16:18:08.922Z,12.81
2023-04-07T16:20:35.626Z,12.87
2023-04-07T16:23:02.080Z,13.10
2023-04-07T16:25:28.697Z,12.66
2023-04-07T16:27:56.500Z,12.71
2023-04-07T16:30:23.177Z,12.76
2023-04-07T16:32:49.563Z,12.98
2023-04-07T16:35:16.722Z,12.73
2023-04-07T16:37:43.322Z,12.96
2023-04-07T16:40:10.384Z,12.48
2023-04-07T16:42:36.854Z,12.28
2023-04-07T16:45:06.076Z,12.62
2023-04-07T16:47:32.659Z,12.48
2023-04-07T16:49:59.443Z,12.19
2023-04-07T16:52:25.905Z,12.06
2023-04-07T16:54:52.942Z,12.17
2023-04-07T16:57:19.323Z,12.09
2023-04-07T16:59:45.657Z,11.82
2023-04-07T17:02:14.755Z,12.02
2023-04-07T17:04:42.115Z,11.86
2023-04-07T17:07:09.150Z,12.21
2023-04-07T17:09:35.782Z,12.19
2023-04-07T17:12:03.206Z,12.01
2023-04-07T17:14:30.141Z,11.73
2023-04-07T17:16:57.142Z,11.72
2023-04-07T17:19:25.028Z,11.81
2023-04-07T17:21:51.416Z,11.52
2023-04-07T17:24:17.856Z,11.73
2023-04-07T17:26:45.118Z,11.45
2023-04-07T17:29:11.470Z,11.47
2023-04-07T17:31:37.923Z,11.64
2023-04-07T17:34:04.443Z,11.43
2023-04-07T17:36:32.368Z,11.41
2023-04-07T17:38:59.238Z,11.68
2023-04-07T17:41:27.051Z,11.13
2023-04-07T17:43:54.607Z,11.04
2023-04-07T17:46:21.568Z,11.07
2023-04-07T17:48:48.076Z,11.04
2023-04-07T17:51:14.669Z,10.77
2023-04-07T17:53:42.357Z,10.69
2023-04-07T17:56:08.822Z,10.81
2023-04-07T17:58:35.174Z,10.89
2023-04-07T18:01:01.609Z,10.88
2023-04-07T18:03:28.118Z,10.09
2023-04-07T18:05:54.502Z,10.02
2023-04-07T18:08:21.205Z,9.93
2023-04-07T18:10:48.888Z,10.14
2023-04-07T18:13:15.234Z,9.86
2023-04-07T18:15:41.680Z,9.77
2023-04-07T18:18:08.081Z,9.97
2023-04-07T18:20:35.023Z,9.81
2023-04-07T18:23:01.699Z,9.69
2023-04-07T18:25:28.053Z,9.63
2023-04-07T18:27:55.726Z,9.63
2023-04-07T18:30:22.381Z,9.36
2023-04-07T18:32:48.762Z,9.69
2023-04-07T18:35:15.211Z,9.47
2023-04-07T18:37:42.995Z,9.25
2023-04-07T18:40:11.353Z,9.33
2023-04-07T18:42:37.790Z,9.43
2023-04-07T18:45:06.998Z,9.31
2023-04-07T18:47:33.404Z,9.26
2023-04-07T18:49:59.778Z,9.59
2023-04-07T18:52:26.417Z,9.25
2023-04-07T18:54:53.018Z,9.19
2023-04-07T18:57:19.373Z,9.35
2023-04-07T18:59:45.790Z,9.57
2023-04-07T19:02:13.619Z,9.33
2023-04-07T19:04:40.018Z,9.12
2023-04-07T19:07:06.615Z,8.83
2023-04-07T19:09:32.976Z,9.01
2023-04-07T19:11:59.370Z,8.79
2023-04-07T19:14:26.291Z,8.62
2023-04-07T19:16:52.993Z,8.62
2023-04-07T19:19:20.752Z,8.70
2023-04-07T19:21:47.200Z,8.58
2023-04-07T19:24:13.594Z,8.49
2023-04-07T19:26:40.026Z,8.60
2023-04-07T19:29:06.558Z,8.39
2023-04-07T19:31:32.974Z,8.44
2023-04-07T19:33:59.460Z,8.32
2023-04-07T19:36:27.233Z,8.27
2023-04-07T19:38:53.634Z,7.94
2023-04-07T19:41:20.002Z,8.11
2023-04-07T19:43:46.442Z,8.12
2023-04-07T19:46:12.992Z,8.15
2023-04-07T19:48:39.380Z,7.89
2023-04-07T19:51:07.307Z,7.97
2023-04-07T19:53:35.238Z,8.32
2023-04-07T19:56:01.853Z,8.38
2023-04-07T19:58:28.278Z,8.20
2023-04-07T20:00:54.718Z,8.23
2023-04-07T20:03:21.224Z,8.18
2023-04-07T20:05:47.746Z,8.02
2023-04-07T20:08:14.106Z,8.01
2023-04-07T20:10:41.792Z,7.69
2023-04-07T20:13:08.203Z,7.90
2023-04-07T20:15:34.552Z,8.17
2023-04-07T20:18:00.939Z,8.06
2023-04-07T20:20:27.338Z,8.02
2023-04-07T20:22:53.693Z,8.13
2023-04-07T20:25:20.336Z,7.90
2023-04-07T20:27:48.023Z,8.03
2023-04-07T20:30:14.461Z,7.86
2023-04-07T20:32:40.836Z,7.67
2023-04-07T20:35:08.652Z,7.75
2023-04-07T20:37:35.059Z,7.81
2023-04-07T20:40:01.512Z,7.44
2023-04-07T20:42:27.906Z,7.19
2023-04-07T20:44:55.584Z,7.23
2023-04-07T20:47:21.930Z,7.24
2023-04-07T20:49:48.334Z,7.09
2023-04-07T20:52:14.668Z,7.18
2023-04-07T20:54:41.006Z,7.05
2023-04-07T20:57:07.381Z,6.97
2023-04-07T20:59:33.734Z,7.04
2023-04-07T21:02:01.611Z,7.14
2023-04-07T21:04:28.293Z,7.42
2023-04-07T21:06:54.722Z,7.38
2023-04-07T21:09:21.067Z,7.18
2023-04-07T21:11:47.448Z,7.39
2023-04-07T21:14:13.817Z,7.26
2023-04-07T21:16:40.176Z,7.13
2023-04-07T21:19:08.156Z,6.80
2023-04-07T21:21:34.534Z,7.03
2023-04-07T21:24:00.889Z,6.95
2023-04-07T21:26:27.316Z,7.07
2023-04-07T21:28:53.963Z,6.93
2023-04-07T21:31:21.319Z,7.06
2023-04-07T21:33:47.738Z,7.04
2023-04-07T21:36:15.448Z,7.05
2023-04-07T21:38:41.827Z,6.95
2023-04-07T21:41:08.248Z,7.20
2023-04-07T21:43:34.628Z,7.29
2023-04-07T21:46:01.069Z,7.00
2023-04-07T21:48:27.498Z,7.35
2023-04-07T21:50:53.847Z,7.78
2023-04-07T21:53:21.539Z,7.62
2023-04-07T21:55:47.900Z,7.58
2023-04-07T21:58:14.256Z,7.38
2023-04-07T22:00:40.645Z,7.15
2023-04-07T22:03:07.322Z,7.32
2023-04-07T22:05:33.932Z,7.17
2023-04-07T22:08:00.299Z,7.29
2023-04-07T22:10:28.044Z,7.33
2023-04-07T22:12:54.388Z,7.19
2023-04-07T22:15:21.235Z,7.22
2023-04-07T22:17:47.744Z,7.16
2023-04-07T22:20:14.352Z,7.40
2023-04-07T22:22:40.736Z,7.30
2023-04-07T22:25:08.149Z,7.57
2023-04-07T22:27:35.828Z,7.37
2023-04-07T22:30:02.570Z,7.25
2023-04-07T22:32:29.027Z,7.25
2023-04-07T22:34:55.412Z,7.79
2023-04-07T22:37:21.838Z,7.37
2023-04-07T22:39:48.236Z,7.12
2023-04-07T22:42:14.615Z,7.23
2023-04-07T22:44:42.284Z,7.18
2023-04-07T22:47:08.963Z,7.27
2023-04-07T22:49:35.853Z,7.41
2023-04-07T22:52:02.274Z,7.26
2023-04-07T22:54:28.712Z,7.31
2023-04-07T22:56:55.070Z,6.90
2023-04-07T22:59:21.428Z,7.08
2023-04-07T23:01:49.246Z,7.05
2023-04-07T23:04:15.661Z,7.34
2023-04-07T23:06:42.018Z,7.46
2023-04-07T23:09:08.388Z,6.93
2023-04-07T23:11:34.755Z,7.39
2023-04-07T23:14:01.389Z,7.20
2023-04-07T23:16:27.865Z,7.68
2023-04-07T23:18:55.637Z,7.42
2023-04-07T23:21:22.052Z,7.56
2023-04-07T23:23:48.446Z,7.00
2023-04-07T23:26:14.781Z,7.43
2023-04-07T23:28:41.147Z,7.14
2023-04-07T23:31:08.264Z,7.31
2023-04-07T23:33:34.616Z,7.18
2023-04-07T23:36:02.456Z,7.47
2023-04-07T23:38:28.873Z,7.03
2023-04-07T23:40:55.235Z,7.05
2023-04-07T23:43:21.634Z,6.89
2023-04-07T23:45:48.017Z,7.17
2023-04-07T23:48:14.797Z,7.19
2023-04-07T23:50:41.372Z,6.93
2023-04-07T23:53:09.263Z,7.73
2023-04-07T23:55:35.687Z,7.31
2023-04-07T23:58:02.100Z,7.50
